sensor_id;sensor_type;location;lat;lon;timestamp;pressure;altitude;pressure_sealevel;temperature;humidity
42289;BME280;30230;47.520;19.016;2023-07-29T00:00:41;98661.09;;;20.07;91.85
42289;BME280;30230;47.520;19.016;2023-07-29T00:02:42;98669.84;;;20.09;90.87
42289;BME280;30230;47.520;19.016;2023-07-29T00:04:42;98664.63;;;20.13;89.15
42289;BME280;30230;47.520;19.016;2023-07-29T00:06:43;98661.88;;;20.18;88.19
42289;BME280;30230;47.520;19.016;2023-07-29T00:08:43;98657.72;;;20.20;86.02
42289;BME280;30230;47.520;19.016;2023-07-29T00:10:44;98663.75;;;20.27;85.49
42289;BME280;30230;47.520;19.016;2023-07-29T00:12:44;98663.72;;;20.33;84.68
42289;BME280;30230;47.520;19.016;2023-07-29T00:14:45;98658.19;;;20.38;84.60
42289;BME280;30230;47.520;19.016;2023-07-29T00:16:45;98657.34;;;20.42;85.46
42289;BME280;30230;47.520;19.016;2023-07-29T00:18:45;98659.00;;;20.43;85.27
42289;BME280;30230;47.520;19.016;2023-07-29T00:20:46;98655.16;;;20.44;85.52
42289;BME280;30230;47.520;19.016;2023-07-29T00:22:46;98654.63;;;20.42;85.17
42289;BME280;30230;47.520;19.016;2023-07-29T00:24:53;98653.22;;;20.45;85.69
42289;BME280;30230;47.520;19.016;2023-07-29T00:26:57;98649.66;;;20.44;86.93
42289;BME280;30230;47.520;19.016;2023-07-29T00:28:58;98653.50;;;20.43;86.54
42289;BME280;30230;47.520;19.016;2023-07-29T00:30:58;98647.19;;;20.43;86.41
42289;BME280;30230;47.520;19.016;2023-07-29T00:32:59;98651.06;;;20.42;85.96
42289;BME280;30230;47.520;19.016;2023-07-29T00:34:59;98647.22;;;20.38;86.22
42289;BME280;30230;47.520;19.016;2023-07-29T00:37:01;98651.59;;;20.39;86.41
42289;BME280;30230;47.520;19.016;2023-07-29T00:39:01;98649.41;;;20.36;86.42
42289;BME280;30230;47.520;19.016;2023-07-29T00:41:02;98647.78;;;20.35;88.11
42289;BME280;30230;47.520;19.016;2023-07-29T00:43:03;98655.50;;;20.33;88.21
42289;BME280;30230;47.520;19.016;2023-07-29T00:45:04;98660.16;;;20.32;87.17
42289;BME280;30230;47.520;19.016;2023-07-29T00:47:06;98648.91;;;20.28;86.08
42289;BME280;30230;47.520;19.016;2023-07-29T00:49:07;98646.69;;;20.30;84.85
42289;BME280;30230;47.520;19.016;2023-07-29T00:51:08;98653.03;;;20.26;84.76
42289;BME280;30230;47.520;19.016;2023-07-29T00:53:08;98645.66;;;20.26;85.98
42289;BME280;30230;47.520;19.016;2023-07-29T00:55:09;98647.56;;;20.21;87.56
42289;BME280;30230;47.520;19.016;2023-07-29T00:57:11;98644.91;;;20.11;89.31
42289;BME280;30230;47.520;19.016;2023-07-29T00:59:14;98646.78;;;20.15;88.20
42289;BME280;30230;47.520;19.016;2023-07-29T01:01:14;98642.41;;;20.09;88.42
42289;BME280;30230;47.520;19.016;2023-07-29T01:03:15;98636.72;;;20.00;88.99
42289;BME280;30230;47.520;19.016;2023-07-29T01:05:16;98643.28;;;19.99;88.87
42289;BME280;30230;47.520;19.016;2023-07-29T01:07:20;98645.25;;;19.89;90.26
42289;BME280;30230;47.520;19.016;2023-07-29T01:09:46;98640.91;;;19.77;92.52
42289;BME280;30230;47.520;19.016;2023-07-29T01:12:01;98637.69;;;19.60;93.55
42289;BME280;30230;47.520;19.016;2023-07-29T01:14:31;98638.75;;;19.49;95.41
42289;BME280;30230;47.520;19.016;2023-07-29T01:16:39;98640.94;;;19.47;94.67
42289;BME280;30230;47.520;19.016;2023-07-29T01:18:42;98639.59;;;19.44;95.29
42289;BME280;30230;47.520;19.016;2023-07-29T01:20:46;98643.97;;;19.35;97.17
42289;BME280;30230;47.520;19.016;2023-07-29T01:22:48;98636.31;;;19.27;97.98
42289;BME280;30230;47.520;19.016;2023-07-29T01:24:48;98641.78;;;19.22;98.30
42289;BME280;30230;47.520;19.016;2023-07-29T01:26:48;98646.19;;;19.18;100.00
42289;BME280;30230;47.520;19.016;2023-07-29T01:28:49;98639.63;;;19.14;97.23
42289;BME280;30230;47.520;19.016;2023-07-29T01:30:51;98633.06;;;19.10;98.99
42289;BME280;30230;47.520;19.016;2023-07-29T01:37:22;98639.06;;;19.02;97.46
42289;BME280;30230;47.520;19.016;2023-07-29T01:39:26;98644.28;;;19.03;99.20
42289;BME280;30230;47.520;19.016;2023-07-29T01:41:29;98640.44;;;18.94;96.50
42289;BME280;30230;47.520;19.016;2023-07-29T01:43:30;98642.38;;;18.93;96.14
42289;BME280;30230;47.520;19.016;2023-07-29T01:45:31;98656.06;;;19.09;94.90
42289;BME280;30230;47.520;19.016;2023-07-29T01:47:36;98646.75;;;19.05;96.31
42289;BME280;30230;47.520;19.016;2023-07-29T01:49:36;98648.66;;;19.04;95.13
42289;BME280;30230;47.520;19.016;2023-07-29T01:51:37;98647.56;;;19.05;95.40
42289;BME280;30230;47.520;19.016;2023-07-29T01:53:37;98639.63;;;19.04;95.97
42289;BME280;30230;47.520;19.016;2023-07-29T01:55:38;98636.31;;;19.02;95.93
42289;BME280;30230;47.520;19.016;2023-07-29T01:57:39;98641.81;;;18.96;97.61
42289;BME280;30230;47.520;19.016;2023-07-29T01:59:39;98630.31;;;18.89;97.33
42289;BME280;30230;47.520;19.016;2023-07-29T02:01:40;98639.63;;;18.88;98.06
42289;BME280;30230;47.520;19.016;2023-07-29T02:03:41;98646.72;;;18.84;98.12
42289;BME280;30230;47.520;19.016;2023-07-29T02:05:41;98640.72;;;18.82;97.38
42289;BME280;30230;47.520;19.016;2023-07-29T02:07:45;98638.00;;;18.82;98.10
42289;BME280;30230;47.520;19.016;2023-07-29T02:09:45;98641.78;;;18.86;98.50
42289;BME280;30230;47.520;19.016;2023-07-29T02:11:45;98639.06;;;18.81;97.31
42289;BME280;30230;47.520;19.016;2023-07-29T02:13:46;98648.94;;;18.87;97.05
42289;BME280;30230;47.520;19.016;2023-07-29T02:15:46;98640.72;;;18.92;96.90
42289;BME280;30230;47.520;19.016;2023-07-29T02:17:46;98631.69;;;18.92;98.14
42289;BME280;30230;47.520;19.016;2023-07-29T02:19:47;98628.69;;;18.93;98.52
42289;BME280;30230;47.520;19.016;2023-07-29T02:21:47;98639.34;;;18.95;98.21
42289;BME280;30230;47.520;19.016;2023-07-29T02:23:47;98647.03;;;18.93;97.60
42289;BME280;30230;47.520;19.016;2023-07-29T02:25:48;98645.63;;;18.90;96.68
42289;BME280;30230;47.520;19.016;2023-07-29T02:27:48;98644.53;;;18.91;96.44
42289;BME280;30230;47.520;19.016;2023-07-29T02:29:49;98648.38;;;18.95;95.96
42289;BME280;30230;47.520;19.016;2023-07-29T02:31:49;98648.66;;;18.99;94.55
42289;BME280;30230;47.520;19.016;2023-07-29T02:33:50;98645.34;;;19.02;93.41
42289;BME280;30230;47.520;19.016;2023-07-29T02:35:51;98643.19;;;19.04;93.07
42289;BME280;30230;47.520;19.016;2023-07-29T02:37:51;98640.97;;;19.06;92.72
42289;BME280;30230;47.520;19.016;2023-07-29T02:39:51;98640.72;;;19.08;94.10
42289;BME280;30230;47.520;19.016;2023-07-29T02:41:52;98647.03;;;19.08;94.12
42289;BME280;30230;47.520;19.016;2023-07-29T02:43:52;98646.47;;;19.11;93.52
42289;BME280;30230;47.520;19.016;2023-07-29T02:45:53;98654.94;;;19.10;94.51
42289;BME280;30230;47.520;19.016;2023-07-29T02:47:53;98650.56;;;19.09;nan
42289;BME280;30230;47.520;19.016;2023-07-29T02:49:53;98648.94;;;19.03;94.19
42289;BME280;30230;47.520;19.016;2023-07-29T02:51:54;98654.94;;;19.05;94.90
42289;BME280;30230;47.520;19.016;2023-07-29T02:53:54;98650.84;;;19.02;94.97
42289;BME280;30230;47.520;19.016;2023-07-29T02:55:55;98649.19;;;19.01;94.99
42289;BME280;30230;47.520;19.016;2023-07-29T02:57:55;98651.94;;;19.01;95.46
42289;BME280;30230;47.520;19.016;2023-07-29T02:59:55;98654.66;;;19.01;95.28
42289;BME280;30230;47.520;19.016;2023-07-29T03:01:56;98647.84;;;18.98;94.93
42289;BME280;30230;47.520;19.016;2023-07-29T03:03:56;98647.56;;;19.00;93.85
42289;BME280;30230;47.520;19.016;2023-07-29T03:06:05;98645.09;;;18.98;92.84
42289;BME280;30230;47.520;19.016;2023-07-29T03:08:05;98650.84;;;19.02;92.68
42289;BME280;30230;47.520;19.016;2023-07-29T03:10:06;98654.41;;;19.03;93.16
42289;BME280;30230;47.520;19.016;2023-07-29T03:12:06;98662.88;;;19.06;92.90
42289;BME280;30230;47.520;19.016;2023-07-29T03:14:07;98653.31;;;19.04;94.23
42289;BME280;30230;47.520;19.016;2023-07-29T03:16:17;98654.94;;;18.99;95.80
42289;BME280;30230;47.520;19.016;2023-07-29T03:18:18;98654.94;;;18.94;94.97
42289;BME280;30230;47.520;19.016;2023-07-29T03:20:19;98659.31;;;18.95;94.20
42289;BME280;30230;47.520;19.016;2023-07-29T03:22:19;98652.22;;;18.94;94.56
42289;BME280;30230;47.520;19.016;2023-07-29T03:24:20;98653.84;;;18.95;96.30
42289;BME280;30230;47.520;19.016;2023-07-29T03:26:20;98648.38;;;18.90;96.72
42289;BME280;30230;47.520;19.016;2023-07-29T03:28:20;98657.16;;;18.92;97.11
42289;BME280;30230;47.520;19.016;2023-07-29T03:30:21;98655.47;;;18.91;97.84
42289;BME280;30230;47.520;19.016;2023-07-29T03:32:22;98650.28;;;18.90;97.80
42289;BME280;30230;47.520;19.016;2023-07-29T03:34:23;98653.59;;;18.92;96.67
42289;BME280;30230;47.520;19.016;2023-07-29T03:36:23;98652.22;;;18.94;95.93
42289;BME280;30230;47.520;19.016;2023-07-29T03:38:25;98655.47;;;18.96;95.21
42289;BME280;30230;47.520;19.016;2023-07-29T03:40:26;98651.41;;;18.99;94.89
42289;BME280;30230;47.520;19.016;2023-07-29T03:42:26;98655.50;;;19.02;94.78
42289;BME280;30230;47.520;19.016;2023-07-29T03:44:26;98654.94;;;19.05;95.19
42289;BME280;30230;47.520;19.016;2023-07-29T03:46:27;98654.41;;;19.08;95.22
42289;BME280;30230;47.520;19.016;2023-07-29T03:48:27;98651.13;;;19.06;95.43
42289;BME280;30230;47.520;19.016;2023-07-29T03:50:28;98661.78;;;19.07;96.61
42289;BME280;30230;47.520;19.016;2023-07-29T03:52:29;98652.22;;;18.99;96.71
42289;BME280;30230;47.520;19.016;2023-07-29T03:54:29;98657.69;;;18.99;96.65
42289;BME280;30230;47.520;19.016;2023-07-29T03:56:30;98653.31;;;18.98;96.85
42289;BME280;30230;47.520;19.016;2023-07-29T03:58:30;98655.78;;;19.00;96.90
42289;BME280;30230;47.520;19.016;2023-07-29T04:00:31;98660.16;;;19.01;97.54
42289;BME280;30230;47.520;19.016;2023-07-29T04:02:31;98663.97;;;19.00;97.12
42289;BME280;30230;47.520;19.016;2023-07-29T04:04:31;98658.22;;;19.02;97.48
42289;BME280;30230;47.520;19.016;2023-07-29T04:06:32;98659.59;;;19.04;97.10
42289;BME280;30230;47.520;19.016;2023-07-29T04:08:32;98663.69;;;19.07;98.14
42289;BME280;30230;47.520;19.016;2023-07-29T04:10:33;98668.63;;;19.10;97.72
42289;BME280;30230;47.520;19.016;2023-07-29T04:12:35;98669.75;;;19.14;98.12
42289;BME280;30230;47.520;19.016;2023-07-29T04:14:35;98669.19;;;19.17;98.22
42289;BME280;30230;47.520;19.016;2023-07-29T04:16:35;98657.69;;;19.15;97.96
42289;BME280;30230;47.520;19.016;2023-07-29T04:18:36;98669.75;;;19.24;98.50
42289;BME280;30230;47.520;19.016;2023-07-29T04:20:36;98662.06;;;19.26;98.01
42289;BME280;30230;47.520;19.016;2023-07-29T04:22:37;98673.00;;;19.36;97.67
42289;BME280;30230;47.520;19.016;2023-07-29T04:24:37;98665.88;;;19.45;97.09
42289;BME280;30230;47.520;19.016;2023-07-29T04:26:38;98666.41;;;19.52;96.86
42289;BME280;30230;47.520;19.016;2023-07-29T04:28:39;98670.53;;;19.60;96.15
42289;BME280;30230;47.520;19.016;2023-07-29T04:30:39;98662.03;;;19.67;95.73
42289;BME280;30230;47.520;19.016;2023-07-29T04:32:40;98663.63;;;19.78;95.51
42289;BME280;30230;47.520;19.016;2023-07-29T04:34:42;98662.00;;;19.82;95.57
42289;BME280;30230;47.520;19.016;2023-07-29T04:36:42;98660.88;;;19.88;95.64
42289;BME280;30230;47.520;19.016;2023-07-29T04:38:42;98663.88;;;19.92;95.53
42289;BME280;30230;47.520;19.016;2023-07-29T04:40:43;98656.75;;;19.91;95.72
42289;BME280;30230;47.520;19.016;2023-07-29T04:42:43;98655.38;;;19.93;96.23
42289;BME280;30230;47.520;19.016;2023-07-29T04:44:43;98663.88;;;19.92;96.04
42289;BME280;30230;47.520;19.016;2023-07-29T04:46:44;98657.59;;;19.91;96.14
42289;BME280;30230;47.520;19.016;2023-07-29T04:48:44;98655.94;;;19.90;96.56
42289;BME280;30230;47.520;19.016;2023-07-29T04:50:45;98662.25;;;19.91;96.79
42289;BME280;30230;47.520;19.016;2023-07-29T04:52:45;98658.41;;;19.87;96.21
42289;BME280;30230;47.520;19.016;2023-07-29T04:54:45;98658.13;;;19.93;96.15
42289;BME280;30230;47.520;19.016;2023-07-29T04:56:46;98660.84;;;19.93;95.84
42289;BME280;30230;47.520;19.016;2023-07-29T04:58:47;98659.22;;;19.92;96.55
42289;BME280;30230;47.520;19.016;2023-07-29T05:00:47;98658.38;;;19.97;97.49
42289;BME280;30230;47.520;19.016;2023-07-29T05:02:47;98651.78;;;19.98;97.26
42289;BME280;30230;47.520;19.016;2023-07-29T05:04:48;98660.81;;;20.03;96.84
42289;BME280;30230;47.520;19.016;2023-07-29T05:06:48;98667.09;;;20.09;96.75
42289;BME280;30230;47.520;19.016;2023-07-29T05:08:49;98659.94;;;20.18;94.92
42289;BME280;30230;47.520;19.016;2023-07-29T05:10:50;98668.66;;;20.25;93.52
42289;BME280;30230;47.520;19.016;2023-07-29T05:12:50;98668.34;;;20.42;91.94
42289;BME280;30230;47.520;19.016;2023-07-29T05:14:51;98676.50;;;20.58;90.41
42289;BME280;30230;47.520;19.016;2023-07-29T05:16:51;98674.22;;;20.70;89.24
42289;BME280;30230;47.520;19.016;2023-07-29T05:18:51;98671.97;;;20.77;88.06
42289;BME280;30230;47.520;19.016;2023-07-29T05:20:52;98678.47;;;20.91;88.33
42289;BME280;30230;47.520;19.016;2023-07-29T05:22:52;98685.84;;;20.96;88.28
42289;BME280;30230;47.520;19.016;2023-07-29T05:24:53;98684.75;;;20.97;87.79
42289;BME280;30230;47.520;19.016;2023-07-29T05:26:53;98688.25;;;21.02;88.25
42289;BME280;30230;47.520;19.016;2023-07-29T05:28:53;98686.25;;;21.13;89.49
42289;BME280;30230;47.520;19.016;2023-07-29T05:30:54;98679.66;;;21.19;89.50
42289;BME280;30230;47.520;19.016;2023-07-29T05:32:54;98681.75;;;21.27;90.26
42289;BME280;30230;47.520;19.016;2023-07-29T05:34:55;98688.78;;;21.44;89.71
42289;BME280;30230;47.520;19.016;2023-07-29T05:36:55;98695.69;;;21.41;89.89
42289;BME280;30230;47.520;19.016;2023-07-29T05:38:55;98697.13;;;21.33;88.73
42289;BME280;30230;47.520;19.016;2023-07-29T05:40:56;98701.28;;;21.31;89.65
42289;BME280;30230;47.520;19.016;2023-07-29T05:42:56;98708.41;;;21.32;90.65
42289;BME280;30230;47.520;19.016;2023-07-29T05:44:57;98709.72;;;21.35;89.86
42289;BME280;30230;47.520;19.016;2023-07-29T05:46:57;98709.69;;;21.40;87.21
42289;BME280;30230;47.520;19.016;2023-07-29T05:48:58;98705.56;;;21.42;87.09
42289;BME280;30230;47.520;19.016;2023-07-29T05:50:58;98703.13;;;21.41;87.98
42289;BME280;30230;47.520;19.016;2023-07-29T05:52:59;98706.09;;;21.44;87.06
42289;BME280;30230;47.520;19.016;2023-07-29T05:54:59;98710.72;;;21.49;86.31
42289;BME280;30230;47.520;19.016;2023-07-29T05:57:00;98710.97;;;21.52;85.32
42289;BME280;30230;47.520;19.016;2023-07-29T05:59:00;98718.09;;;21.53;86.42
42289;BME280;30230;47.520;19.016;2023-07-29T06:01:01;98721.41;;;21.55;86.42
42289;BME280;30230;47.520;19.016;2023-07-29T06:03:01;98735.34;;;21.59;86.77
42289;BME280;30230;47.520;19.016;2023-07-29T06:05:02;98723.56;;;21.58;88.15
42289;BME280;30230;47.520;19.016;2023-07-29T06:07:04;98722.69;;;21.63;87.57
42289;BME280;30230;47.520;19.016;2023-07-29T06:09:05;98734.19;;;21.65;87.78
42289;BME280;30230;47.520;19.016;2023-07-29T06:11:05;98738.06;;;21.64;86.87
42289;BME280;30230;47.520;19.016;2023-07-29T06:13:06;98742.19;;;21.67;86.43
42289;BME280;30230;47.520;19.016;2023-07-29T06:15:07;98737.75;;;21.66;87.28
42289;BME280;30230;47.520;19.016;2023-07-29T06:17:07;98736.59;;;21.77;87.60
42289;BME280;30230;47.520;19.016;2023-07-29T06:19:08;98738.13;;;21.88;86.05
42289;BME280;30230;47.520;19.016;2023-07-29T06:21:09;98733.19;;;21.85;85.90
42289;BME280;30230;47.520;19.016;2023-07-29T06:23:12;98742.44;;;21.94;84.63
42289;BME280;30230;47.520;19.016;2023-07-29T06:25:12;98748.75;;;21.95;83.84
42289;BME280;30230;47.520;19.016;2023-07-29T06:27:13;98743.56;;;21.93;84.51
42289;BME280;30230;47.520;19.016;2023-07-29T06:29:13;98743.81;;;21.97;84.95
42289;BME280;30230;47.520;19.016;2023-07-29T06:31:13;98744.53;;;22.07;84.82
42289;BME280;30230;47.520;19.016;2023-07-29T06:33:14;98752.69;;;22.18;84.89
42289;BME280;30230;47.520;19.016;2023-07-29T06:35:15;98742.59;;;22.32;84.25
42289;BME280;30230;47.520;19.016;2023-07-29T06:37:15;98758.72;;;22.44;82.00
42289;BME280;30230;47.520;19.016;2023-07-29T06:39:16;98753.59;;;22.56;82.26
42289;BME280;30230;47.520;19.016;2023-07-29T06:41:16;98752.91;;;22.69;82.15
42289;BME280;30230;47.520;19.016;2023-07-29T06:43:17;98752.72;;;22.79;80.89
42289;BME280;30230;47.520;19.016;2023-07-29T06:45:17;98751.53;;;22.91;79.94
42289;BME280;30230;47.520;19.016;2023-07-29T06:47:17;98749.44;;;23.01;79.05
42289;BME280;30230;47.520;19.016;2023-07-29T06:49:18;98740.41;;;23.14;79.67
42289;BME280;30230;47.520;19.016;2023-07-29T06:51:18;98731.41;;;23.28;78.92
42289;BME280;30230;47.520;19.016;2023-07-29T06:53:18;98743.06;;;23.38;78.33
42289;BME280;30230;47.520;19.016;2023-07-29T06:55:19;98737.78;;;23.42;74.26
42289;BME280;30230;47.520;19.016;2023-07-29T06:57:19;98742.91;;;23.49;75.67
42289;BME280;30230;47.520;19.016;2023-07-29T06:59:20;98739.66;;;23.60;76.51
42289;BME280;30230;47.520;19.016;2023-07-29T07:01:20;98740.16;;;23.68;77.20
42289;BME280;30230;47.520;19.016;2023-07-29T07:03:21;98743.44;;;23.83;78.25
42289;BME280;30230;47.520;19.016;2023-07-29T07:05:21;98739.16;;;23.91;78.16
42289;BME280;30230;47.520;19.016;2023-07-29T07:07:21;98731.81;;;24.00;79.38
42289;BME280;30230;47.520;19.016;2023-07-29T07:09:22;98735.31;;;24.20;79.40
42289;BME280;30230;47.520;19.016;2023-07-29T07:11:22;98734.09;;;24.26;78.63
42289;BME280;30230;47.520;19.016;2023-07-29T07:13:22;98733.19;;;24.44;78.22
42289;BME280;30230;47.520;19.016;2023-07-29T07:15:23;98724.56;;;24.59;75.80
42289;BME280;30230;47.520;19.016;2023-07-29T07:17:23;98734.47;;;24.74;73.30
42289;BME280;30230;47.520;19.016;2023-07-29T07:19:24;98729.91;;;24.56;70.30
42289;BME280;30230;47.520;19.016;2023-07-29T07:21:24;98736.16;;;24.61;71.08
42289;BME280;30230;47.520;19.016;2023-07-29T07:23:25;98735.94;;;24.58;70.02
42289;BME280;30230;47.520;19.016;2023-07-29T07:25:25;98735.66;;;24.46;70.91
42289;BME280;30230;47.520;19.016;2023-07-29T07:27:25;98733.81;;;24.41;72.03
42289;BME280;30230;47.520;19.016;2023-07-29T07:29:26;98736.56;;;24.41;72.37
42289;BME280;30230;47.520;19.016;2023-07-29T07:31:26;98728.41;;;24.36;70.09
42289;BME280;30230;47.520;19.016;2023-07-29T07:33:26;98737.50;;;24.50;70.00
42289;BME280;30230;47.520;19.016;2023-07-29T07:35:27;98731.44;;;24.62;69.79
42289;BME280;30230;47.520;19.016;2023-07-29T07:37:27;98732.97;;;24.68;70.65
42289;BME280;30230;47.520;19.016;2023-07-29T07:39:28;98735.13;;;24.57;74.13
42289;BME280;30230;47.520;19.016;2023-07-29T07:41:28;98740.53;;;24.49;74.55
42289;BME280;30230;47.520;19.016;2023-07-29T07:43:28;98739.34;;;24.41;75.26
42289;BME280;30230;47.520;19.016;2023-07-29T07:45:29;98729.72;;;24.38;75.88
42289;BME280;30230;47.520;19.016;2023-07-29T07:47:32;98733.69;;;24.60;76.43
42289;BME280;30230;47.520;19.016;2023-07-29T07:49:32;98722.28;;;24.75;76.10
42289;BME280;30230;47.520;19.016;2023-07-29T07:51:32;98733.44;;;24.84;77.22
42289;BME280;30230;47.520;19.016;2023-07-29T07:53:33;98728.59;;;25.03;75.87
42289;BME280;30230;47.520;19.016;2023-07-29T07:55:33;98722.28;;;25.25;74.43
42289;BME280;30230;47.520;19.016;2023-07-29T07:57:33;98722.41;;;25.42;72.76
42289;BME280;30230;47.520;19.016;2023-07-29T07:59:34;98721.06;;;25.62;73.64
42289;BME280;30230;47.520;19.016;2023-07-29T08:01:38;98726.63;;;25.85;73.58
42289;BME280;30230;47.520;19.016;2023-07-29T08:03:39;98721.34;;;26.06;69.61
42289;BME280;30230;47.520;19.016;2023-07-29T08:05:39;98722.56;;;26.22;66.09
42289;BME280;30230;47.520;19.016;2023-07-29T08:07:39;98730.06;;;26.30;68.09
42289;BME280;30230;47.520;19.016;2023-07-29T08:09:40;98720.41;;;26.59;67.85
42289;BME280;30230;47.520;19.016;2023-07-29T08:11:40;98713.59;;;26.73;67.40
42289;BME280;30230;47.520;19.016;2023-07-29T08:13:41;98710.34;;;26.89;64.83
42289;BME280;30230;47.520;19.016;2023-07-29T08:15:41;98716.88;;;27.01;64.06
42289;BME280;30230;47.520;19.016;2023-07-29T08:17:41;98704.34;;;27.04;65.28
42289;BME280;30230;47.520;19.016;2023-07-29T08:19:42;98715.28;;;27.09;64.75
42289;BME280;30230;47.520;19.016;2023-07-29T08:21:42;98704.31;;;27.39;65.18
42289;BME280;30230;47.520;19.016;2023-07-29T08:23:43;98712.47;;;27.52;65.74
42289;BME280;30230;47.520;19.016;2023-07-29T08:25:43;98698.41;;;27.66;64.04
42289;BME280;30230;47.520;19.016;2023-07-29T08:27:43;98709.31;;;27.80;61.41
42289;BME280;30230;47.520;19.016;2023-07-29T08:29:44;98710.09;;;27.98;60.29
42289;BME280;30230;47.520;19.016;2023-07-29T08:31:44;98708.75;;;28.13;58.43
42289;BME280;30230;47.520;19.016;2023-07-29T08:33:44;98710.16;;;28.27;58.49
42289;BME280;30230;47.520;19.016;2023-07-29T08:35:45;98706.19;;;28.37;55.94
42289;BME280;30230;47.520;19.016;2023-07-29T08:37:45;98711.34;;;28.47;56.86
42289;BME280;30230;47.520;19.016;2023-07-29T08:39:46;98709.06;;;28.49;53.83
42289;BME280;30230;47.520;19.016;2023-07-29T08:42:01;98712.91;;;28.66;52.87
42289;BME280;30230;47.520;19.016;2023-07-29T08:44:23;98710.59;;;28.68;49.98
42289;BME280;30230;47.520;19.016;2023-07-29T08:46:24;98709.38;;;28.77;48.40
42289;BME280;30230;47.520;19.016;2023-07-29T08:48:36;98705.97;;;28.72;47.64
42289;BME280;30230;47.520;19.016;2023-07-29T08:50:41;98708.81;;;28.84;48.77
42289;BME280;30230;47.520;19.016;2023-07-29T08:52:41;98702.22;;;28.97;49.10
42289;BME280;30230;47.520;19.016;2023-07-29T08:54:42;98703.34;;;29.05;49.07
42289;BME280;30230;47.520;19.016;2023-07-29T08:56:43;98702.38;;;29.22;46.78
42289;BME280;30230;47.520;19.016;2023-07-29T08:58:45;98702.06;;;29.36;47.34
42289;BME280;30230;47.520;19.016;2023-07-29T09:00:46;98698.56;;;29.26;46.88
42289;BME280;30230;47.520;19.016;2023-07-29T09:02:47;98695.06;;;29.29;48.43
42289;BME280;30230;47.520;19.016;2023-07-29T09:04:47;98694.41;;;29.53;47.67
42289;BME280;30230;47.520;19.016;2023-07-29T09:06:50;98701.97;;;29.65;46.67
42289;BME280;30230;47.520;19.016;2023-07-29T09:08:51;98693.03;;;29.72;46.26
42289;BME280;30230;47.520;19.016;2023-07-29T09:10:54;98699.31;;;29.81;45.65
42289;BME280;30230;47.520;19.016;2023-07-29T09:12:55;98698.06;;;29.78;47.41
42289;BME280;30230;47.520;19.016;2023-07-29T09:14:56;98697.41;;;29.94;45.77
42289;BME280;30230;47.520;19.016;2023-07-29T09:16:56;98693.22;;;30.00;44.81
42289;BME280;30230;47.520;19.016;2023-07-29T09:19:01;98693.91;;;29.97;45.58
42289;BME280;30230;47.520;19.016;2023-07-29T09:21:01;98693.44;;;30.07;45.39
42289;BME280;30230;47.520;19.016;2023-07-29T09:23:02;98689.13;;;29.85;44.65
42289;BME280;30230;47.520;19.016;2023-07-29T09:25:02;98683.03;;;30.04;46.07
42289;BME280;30230;47.520;19.016;2023-07-29T09:27:03;98693.50;;;30.31;47.61
42289;BME280;30230;47.520;19.016;2023-07-29T09:29:03;98693.59;;;30.23;46.04
42289;BME280;30230;47.520;19.016;2023-07-29T09:31:04;98683.28;;;30.35;44.43
42289;BME280;30230;47.520;19.016;2023-07-29T09:33:05;98683.50;;;30.43;45.36
42289;BME280;30230;47.520;19.016;2023-07-29T09:35:10;98684.91;;;30.37;44.46
42289;BME280;30230;47.520;19.016;2023-07-29T09:37:24;98672.22;;;29.90;44.17
42289;BME280;30230;47.520;19.016;2023-07-29T09:39:24;98678.88;;;30.34;47.16
42289;BME280;30230;47.520;19.016;2023-07-29T09:41:29;98685.47;;;30.54;45.91
42289;BME280;30230;47.520;19.016;2023-07-29T09:43:33;98686.31;;;30.55;41.95
42289;BME280;30230;47.520;19.016;2023-07-29T09:45:36;98686.19;;;30.51;44.18
42289;BME280;30230;47.520;19.016;2023-07-29T09:47:36;98675.59;;;30.57;42.84
42289;BME280;30230;47.520;19.016;2023-07-29T09:49:37;98678.63;;;30.52;45.00
42289;BME280;30230;47.520;19.016;2023-07-29T09:51:38;98669.81;;;30.50;42.30
42289;BME280;30230;47.520;19.016;2023-07-29T09:53:42;98678.16;;;30.62;43.73
42289;BME280;30230;47.520;19.016;2023-07-29T09:55:47;98669.09;;;30.77;43.12
42289;BME280;30230;47.520;19.016;2023-07-29T09:57:58;98672.19;;;30.88;42.18
42289;BME280;30230;47.520;19.016;2023-07-29T10:00:04;98673.63;;;30.82;41.54
42289;BME280;30230;47.520;19.016;2023-07-29T10:02:15;98671.09;;;31.05;42.17
42289;BME280;30230;47.520;19.016;2023-07-29T10:04:17;98664.56;;;31.13;40.90
42289;BME280;30230;47.520;19.016;2023-07-29T10:06:17;98659.53;;;31.19;41.53
42289;BME280;30230;47.520;19.016;2023-07-29T10:08:18;98665.63;;;31.36;40.56
42289;BME280;30230;47.520;19.016;2023-07-29T10:10:20;98663.44;;;31.58;41.07
42289;BME280;30230;47.520;19.016;2023-07-29T10:12:21;98662.47;;;31.66;39.90
42289;BME280;30230;47.520;19.016;2023-07-29T10:14:22;98652.75;;;31.76;40.82
42289;BME280;30230;47.520;19.016;2023-07-29T10:16:24;98658.00;;;31.93;41.07
42289;BME280;30230;47.520;19.016;2023-07-29T10:18:25;98649.59;;;31.77;38.94
42289;BME280;30230;47.520;19.016;2023-07-29T10:20:26;98662.34;;;31.91;37.06
42289;BME280;30230;47.520;19.016;2023-07-29T10:22:28;98663.03;;;32.19;38.69
42289;BME280;30230;47.520;19.016;2023-07-29T10:24:33;98662.84;;;32.28;38.08
42289;BME280;30230;47.520;19.016;2023-07-29T10:26:34;98653.28;;;32.45;34.99
42289;BME280;30230;47.520;19.016;2023-07-29T10:28:40;98663.81;;;32.67;35.59
42289;BME280;30230;47.520;19.016;2023-07-29T10:30:41;98668.28;;;32.72;34.68
42289;BME280;30230;47.520;19.016;2023-07-29T10:32:43;98660.31;;;32.89;33.94
42289;BME280;30230;47.520;19.016;2023-07-29T10:34:44;98666.97;;;32.85;35.43
42289;BME280;30230;47.520;19.016;2023-07-29T10:36:45;98656.97;;;32.84;34.58
42289;BME280;30230;47.520;19.016;2023-07-29T10:38:47;98671.00;;;32.68;34.85